Terminal Aerodrome Forecast
Issued by NWS

Home | Current Version | Previous Version | Text Only | Print | Product List | Glossary Off
Versions: 1 2 3 4 5 6 7 8 9 10 11 12 13

000
FTUS43 KICT 241100
TAFCNU
TAF
KCNU 241132Z 2412/2512 16012KT P6SM SCT150
     FM241600 19014G21KT P6SM SCT100
     FM242100 19014G21KT P6SM BKN100
     FM250300 16008KT P6SM SCT250=

USA.gov is the U.S. government's official web portal to all federal, state and local government web resources and services.